createdAt,value
2023-01-30T00:01:40.255Z,1.47
2023-01-30T00:04:06.895Z,1.90
2023-01-30T00:06:34.198Z,2.21
2023-01-30T00:09:00.841Z,2.09
2023-01-30T00:11:30.052Z,1.78
2023-01-30T00:13:57.044Z,1.73
2023-01-30T00:16:23.805Z,1.71
2023-01-30T00:18:50.850Z,1.46
2023-01-30T00:21:18.265Z,1.66
2023-01-30T00:23:45.537Z,1.55
2023-01-30T00:26:12.596Z,1.38
2023-01-30T00:28:39.858Z,1.51
2023-01-30T00:31:07.382Z,1.56
2023-01-30T00:33:36.046Z,1.56
2023-01-30T00:36:03.121Z,1.83
2023-01-30T00:38:29.790Z,1.23
2023-01-30T00:40:56.402Z,1.77
2023-01-30T00:43:41.387Z,1.62
2023-01-30T00:46:44.389Z,1.98
2023-01-30T00:49:11.284Z,1.39
2023-01-30T00:51:37.919Z,1.27
2023-01-30T00:54:04.561Z,1.01
2023-01-30T00:56:31.274Z,0.90
2023-01-30T00:58:57.878Z,0.70
2023-01-30T01:01:24.566Z,0.83
2023-01-30T01:03:51.280Z,1.09
2023-01-30T01:06:17.926Z,1.36
2023-01-30T01:08:44.607Z,1.20
2023-01-30T01:11:24.163Z,1.17
2023-01-30T01:13:55.475Z,1.61
2023-01-30T01:16:22.362Z,1.02
2023-01-30T01:18:49.813Z,1.16
2023-01-30T01:21:19.292Z,1.29
2023-01-30T01:23:52.987Z,1.37
2023-01-30T01:26:20.196Z,1.23
2023-01-30T01:28:46.975Z,1.17
2023-01-30T01:31:16.363Z,0.96
2023-01-30T01:33:43.223Z,0.96
2023-01-30T01:36:09.912Z,0.73
2023-01-30T01:38:36.609Z,0.76
2023-01-30T01:41:03.371Z,0.76
2023-01-30T01:43:32.975Z,1.17
2023-01-30T01:46:12.202Z,1.03
2023-01-30T01:48:43.735Z,1.06
2023-01-30T01:51:17.687Z,1.16
2023-01-30T01:53:50.631Z,1.37
2023-01-30T01:56:19.684Z,1.06
2023-01-30T01:58:55.692Z,1.31
2023-01-30T02:01:22.643Z,0.92
2023-01-30T02:03:54.511Z,0.84
2023-01-30T02:06:22.911Z,1.32
2023-01-30T02:08:57.846Z,1.48
2023-01-30T02:11:34.974Z,0.81
2023-01-30T02:14:03.144Z,1.47
2023-01-30T02:16:29.817Z,1.71
2023-01-30T02:18:56.599Z,1.71
2023-01-30T02:21:52.196Z,1.39
2023-01-30T02:24:55.001Z,1.27
2023-01-30T02:27:47.942Z,1.01
2023-01-30T02:30:33.173Z,1.65
2023-01-30T02:33:10.848Z,0.60
2023-01-30T02:35:43.462Z,0.37
2023-01-30T02:38:31.728Z,0.92
2023-01-30T02:41:46.084Z,0.98
2023-01-30T02:44:30.430Z,1.12
2023-01-30T02:47:05.225Z,0.93
2023-01-30T02:49:37.618Z,0.58
2023-01-30T02:52:07.034Z,0.62
2023-01-30T02:54:33.871Z,1.01
2023-01-30T02:57:00.872Z,0.93
2023-01-30T02:59:37.793Z,0.83
2023-01-30T03:02:12.291Z,1.25
2023-01-30T03:04:57.133Z,0.77
2023-01-30T03:07:38.892Z,0.92
2023-01-30T03:10:33.513Z,1.01
2023-01-30T03:13:23.101Z,0.88
2023-01-30T03:16:00.141Z,0.97
2023-01-30T03:18:26.855Z,0.46
2023-01-30T03:20:54.024Z,0.04
2023-01-30T03:23:20.897Z,0.22
2023-01-30T03:25:49.050Z,0.93
2023-01-30T03:28:20.941Z,0.89
2023-01-30T03:30:47.718Z,0.67
2023-01-30T03:33:14.437Z,0.60
2023-01-30T03:35:42.590Z,0.60
2023-01-30T03:38:10.071Z,0.95
2023-01-30T03:40:36.911Z,0.54
2023-01-30T03:43:03.570Z,0.19
2023-01-30T03:45:30.223Z,-0.07
2023-01-30T03:47:56.870Z,-0.17
2023-01-30T03:50:23.523Z,-0.03
2023-01-30T03:52:50.136Z,0.45
2023-01-30T03:55:17.504Z,0.32
2023-01-30T03:57:44.327Z,0.24
2023-01-30T04:00:11.564Z,0.18
2023-01-30T04:02:38.832Z,-0.18
2023-01-30T04:05:06.375Z,0.16
2023-01-30T04:07:33.010Z,0.22
2023-01-30T04:09:59.578Z,0.26
2023-01-30T04:12:26.192Z,0.36
2023-01-30T04:14:52.800Z,0.52
2023-01-30T04:17:19.449Z,0.72
2023-01-30T04:19:46.081Z,0.33
2023-01-30T04:22:12.765Z,0.84
2023-01-30T04:24:39.488Z,0.94
2023-01-30T04:27:06.261Z,0.89
2023-01-30T04:29:32.936Z,1.39
2023-01-30T04:31:59.554Z,1.60
2023-01-30T04:34:26.186Z,1.59
2023-01-30T04:36:52.812Z,1.46
2023-01-30T04:39:21.171Z,0.88
2023-01-30T04:41:48.584Z,0.77
2023-01-30T04:44:15.180Z,1.30
2023-01-30T04:46:41.752Z,1.07
2023-01-30T04:49:10.713Z,0.41
2023-01-30T04:51:37.404Z,1.05
2023-01-30T04:54:04.366Z,0.54
2023-01-30T04:56:30.965Z,0.70
2023-01-30T04:58:57.626Z,0.36
2023-01-30T05:01:30.459Z,1.14
2023-01-30T05:03:57.467Z,1.60
2023-01-30T05:06:24.270Z,1.34
2023-01-30T05:08:52.501Z,1.43
2023-01-30T05:11:20.355Z,1.37
2023-01-30T05:13:47.793Z,1.35
2023-01-30T05:16:15.493Z,1.03
2023-01-30T05:18:43.272Z,1.02
2023-01-30T05:21:13.876Z,0.80
2023-01-30T05:23:40.867Z,0.68
2023-01-30T05:26:07.982Z,1.04
2023-01-30T05:28:35.150Z,0.98
2023-01-30T05:31:07.553Z,0.84
2023-01-30T05:33:34.626Z,1.50
2023-01-30T05:36:02.386Z,1.63
2023-01-30T05:38:30.046Z,1.40
2023-01-30T05:41:00.618Z,1.45
2023-01-30T05:43:27.273Z,1.11
2023-01-30T05:45:55.914Z,1.22
2023-01-30T05:48:23.043Z,0.74
2023-01-30T05:50:54.269Z,0.81
2023-01-30T05:53:22.379Z,0.73
2023-01-30T05:55:59.794Z,0.58
2023-01-30T05:58:27.707Z,0.37
2023-01-30T06:00:54.682Z,0.87
2023-01-30T06:03:21.526Z,0.21
2023-01-30T06:05:48.142Z,0.81
2023-01-30T06:08:14.722Z,1.05
2023-01-30T06:10:41.340Z,0.91
2023-01-30T06:13:11.028Z,0.95
2023-01-30T06:15:38.268Z,1.03
2023-01-30T06:18:04.980Z,0.68
2023-01-30T06:20:31.638Z,0.33
2023-01-30T06:22:58.244Z,0.67
2023-01-30T06:25:24.837Z,0.36
2023-01-30T06:27:51.443Z,0.39
2023-01-30T06:30:18.289Z,1.13
2023-01-30T06:32:44.877Z,1.02
2023-01-30T06:35:11.527Z,1.21
2023-01-30T06:37:41.059Z,0.41
2023-01-30T06:40:11.044Z,0.81
2023-01-30T06:42:37.698Z,0.85
2023-01-30T06:45:08.423Z,0.18
2023-01-30T06:47:35.188Z,0.57
2023-01-30T06:50:02.976Z,0.32
2023-01-30T06:52:29.626Z,1.07
2023-01-30T06:54:56.318Z,1.29
2023-01-30T06:57:22.919Z,0.68
2023-01-30T06:59:49.576Z,0.79
2023-01-30T07:02:16.187Z,0.77
2023-01-30T07:04:42.957Z,0.60
2023-01-30T07:07:11.640Z,0.64
2023-01-30T07:09:38.312Z,1.29
2023-01-30T07:12:05.227Z,1.41
2023-01-30T07:14:31.938Z,0.96
2023-01-30T07:16:58.621Z,1.10
2023-01-30T07:19:25.323Z,1.28
2023-01-30T07:21:52.026Z,1.04
2023-01-30T07:24:21.758Z,0.87
2023-01-30T07:26:49.170Z,1.12
2023-01-30T07:29:15.904Z,0.88
2023-01-30T07:31:44.873Z,0.66
2023-01-30T07:34:11.538Z,1.26
2023-01-30T07:36:38.202Z,1.40
2023-01-30T07:39:06.107Z,1.28
2023-01-30T07:41:32.713Z,1.48
2023-01-30T07:43:59.365Z,1.08
2023-01-30T07:46:26.059Z,0.51
2023-01-30T07:48:52.803Z,0.53
2023-01-30T07:51:19.475Z,0.94
2023-01-30T07:53:50.136Z,0.87
2023-01-30T07:56:23.867Z,0.97
2023-01-30T07:58:51.327Z,1.19
2023-01-30T08:01:18.204Z,1.23
2023-01-30T08:03:46.837Z,1.20
2023-01-30T08:06:14.122Z,0.98
2023-01-30T08:08:41.743Z,0.78
2023-01-30T08:11:11.756Z,1.02
2023-01-30T08:13:38.377Z,0.98
2023-01-30T08:16:07.160Z,1.03
2023-01-30T08:18:34.703Z,1.46
2023-01-30T08:21:03.108Z,1.21
2023-01-30T08:23:30.038Z,1.23
2023-01-30T08:25:57.764Z,1.25
2023-01-30T08:28:24.703Z,1.73
2023-01-30T08:30:53.598Z,1.26
2023-01-30T08:33:21.732Z,1.73
2023-01-30T08:35:48.543Z,1.29
2023-01-30T08:38:16.015Z,0.98
2023-01-30T08:40:43.192Z,1.12
2023-01-30T08:43:10.120Z,0.93
2023-01-30T08:45:36.800Z,1.11
2023-01-30T08:48:06.105Z,1.58
2023-01-30T08:50:33.940Z,1.39
2023-01-30T08:53:10.093Z,1.54
2023-01-30T08:55:36.704Z,1.57
2023-01-30T08:58:03.471Z,1.89
2023-01-30T09:00:30.475Z,1.52
2023-01-30T09:02:58.002Z,0.93
2023-01-30T09:05:24.890Z,1.04
2023-01-30T09:07:51.872Z,1.51
2023-01-30T09:10:19.231Z,1.80
2023-01-30T09:12:46.737Z,1.62
2023-01-30T09:15:13.469Z,1.59
2023-01-30T09:17:40.383Z,2.21
2023-01-30T09:20:10.326Z,2.25
2023-01-30T09:22:40.577Z,2.11
2023-01-30T09:25:08.384Z,1.74
2023-01-30T09:27:35.417Z,1.33
2023-01-30T09:30:03.850Z,1.27
2023-01-30T09:32:30.484Z,1.55
2023-01-30T09:34:57.137Z,2.03
2023-01-30T09:37:23.845Z,1.75
2023-01-30T09:39:50.423Z,1.85
2023-01-30T09:42:26.603Z,2.10
2023-01-30T09:45:13.399Z,1.96
2023-01-30T09:47:54.267Z,2.27
2023-01-30T09:50:27.458Z,1.84
2023-01-30T09:53:02.152Z,1.92
2023-01-30T09:55:30.986Z,1.86
2023-01-30T09:58:00.163Z,2.05
2023-01-30T10:00:34.430Z,1.98
2023-01-30T10:03:10.954Z,2.25
2023-01-30T10:05:44.893Z,2.29
2023-01-30T10:08:48.977Z,1.82
2023-01-30T10:11:30.353Z,2.01
2023-01-30T10:14:06.103Z,1.01
2023-01-30T10:16:49.440Z,1.18
2023-01-30T10:19:51.220Z,0.78
2023-01-30T10:22:45.864Z,1.61
2023-01-30T10:25:15.211Z,1.00
2023-01-30T10:27:51.519Z,1.03
2023-01-30T10:30:19.202Z,0.62
2023-01-30T10:33:00.933Z,0.30
2023-01-30T10:35:32.236Z,0.40
2023-01-30T10:38:19.961Z,0.79
2023-01-30T10:40:57.116Z,0.73
2023-01-30T10:43:31.746Z,0.54
2023-01-30T10:46:10.590Z,0.58
2023-01-30T10:48:53.088Z,0.55
2023-01-30T10:51:49.170Z,0.64
2023-01-30T10:54:34.054Z,0.57
2023-01-30T10:57:24.489Z,0.27
2023-01-30T11:00:12.961Z,0.50
2023-01-30T11:03:14.052Z,0.90
2023-01-30T11:06:00.026Z,1.07
2023-01-30T11:08:33.397Z,0.86
2023-01-30T11:11:02.139Z,1.14
2023-01-30T11:13:31.324Z,1.19
2023-01-30T11:16:08.056Z,1.30
2023-01-30T11:21:43.666Z,0.91
2023-01-30T11:24:17.561Z,1.40
2023-01-30T11:26:47.876Z,1.72
2023-01-30T11:29:29.150Z,1.81
2023-01-30T11:31:56.801Z,2.09
2023-01-30T11:34:24.924Z,1.55
2023-01-30T11:36:51.761Z,1.34
2023-01-30T11:39:23.955Z,1.56
2023-01-30T11:41:58.764Z,1.62
2023-01-30T11:44:35.681Z,1.41
2023-01-30T11:47:09.728Z,1.91
2023-01-30T11:50:03.730Z,2.23
2023-01-30T11:52:38.264Z,2.29
2023-01-30T11:55:11.553Z,2.84
2023-01-30T11:57:57.209Z,2.03
2023-01-30T12:00:29.454Z,1.48
2023-01-30T12:03:06.583Z,2.01
2023-01-30T12:05:36.934Z,2.04
2023-01-30T12:08:31.240Z,1.57
2023-01-30T12:11:45.309Z,1.90
2023-01-30T12:14:12.061Z,2.09
2023-01-30T12:17:10.207Z,2.18
2023-01-30T12:19:42.936Z,2.00
2023-01-30T12:22:41.967Z,1.98
2023-01-30T12:25:16.294Z,1.80
2023-01-30T12:27:50.019Z,2.02
2023-01-30T12:30:42.513Z,1.58
2023-01-30T12:33:15.480Z,1.69
2023-01-30T12:35:57.438Z,1.68
2023-01-30T12:38:30.225Z,1.71
2023-01-30T12:41:15.646Z,1.87
2023-01-30T12:43:45.388Z,2.06
2023-01-30T12:46:34.159Z,2.60
2023-01-30T12:49:11.623Z,2.30
2023-01-30T12:51:38.589Z,2.11
2023-01-30T12:54:19.641Z,2.31
2023-01-30T12:57:03.024Z,1.83
2023-01-30T12:59:39.297Z,1.91
2023-01-30T13:03:00.132Z,2.19
2023-01-30T13:05:43.721Z,2.23
2023-01-30T13:08:28.716Z,2.02
2023-01-30T13:11:09.096Z,2.38
2023-01-30T13:13:48.646Z,2.46
2023-01-30T13:16:26.968Z,2.20
2023-01-30T13:19:06.103Z,2.31
2023-01-30T13:21:56.556Z,2.07
2023-01-30T13:24:52.450Z,2.06
2023-01-30T13:27:22.057Z,2.45
2023-01-30T13:29:49.901Z,1.67
2023-01-30T13:32:30.401Z,2.41
2023-01-30T13:35:00.191Z,2.49
2023-01-30T13:37:27.645Z,1.95
2023-01-30T13:40:13.737Z,2.51
2023-01-30T13:43:02.438Z,2.50
2023-01-30T13:45:37.157Z,1.92
2023-01-30T13:48:24.969Z,2.27
2023-01-30T13:51:26.848Z,2.24
2023-01-30T13:53:58.309Z,2.23
2023-01-30T13:57:12.379Z,2.34
2023-01-30T14:00:09.535Z,2.18
2023-01-30T14:02:36.188Z,1.99
2023-01-30T14:05:05.850Z,2.05
2023-01-30T14:07:42.878Z,1.88
2023-01-30T14:10:09.428Z,2.66
2023-01-30T14:12:48.376Z,2.71
2023-01-30T14:15:15.021Z,2.60
2023-01-30T14:18:01.743Z,2.45
2023-01-30T14:20:31.342Z,2.51
2023-01-30T14:23:00.548Z,2.56
2023-01-30T14:25:30.279Z,2.40
2023-01-30T14:27:59.676Z,2.21
2023-01-30T14:30:49.756Z,1.94
2023-01-30T14:33:22.192Z,1.88
2023-01-30T14:36:00.826Z,1.68
2023-01-30T14:38:30.924Z,1.83
2023-01-30T14:41:00.106Z,2.25
2023-01-30T14:43:26.669Z,2.44
2023-01-30T14:45:57.055Z,2.14
2023-01-30T14:48:32.193Z,2.03
2023-01-30T14:51:32.758Z,2.31
2023-01-30T14:54:25.434Z,1.88
2023-01-30T14:57:01.225Z,1.54
2023-01-30T14:59:39.856Z,1.56
2023-01-30T15:02:12.384Z,2.07
2023-01-30T15:04:49.014Z,2.32
2023-01-30T15:07:23.626Z,2.30
2023-01-30T15:09:58.937Z,1.76
2023-01-30T15:12:34.203Z,1.64
2023-01-30T15:15:35.643Z,1.18
2023-01-30T15:18:17.117Z,1.56
2023-01-30T15:20:46.920Z,0.73
2023-01-30T15:23:16.586Z,0.89
2023-01-30T15:26:12.120Z,0.63
2023-01-30T15:28:50.912Z,0.76
2023-01-30T15:31:22.099Z,0.41
2023-01-30T15:33:53.888Z,0.42
2023-01-30T15:36:31.264Z,0.05
2023-01-30T15:39:06.936Z,0.11
2023-01-30T15:41:41.144Z,0.11
2023-01-30T15:44:38.398Z,-0.23
2023-01-30T15:47:23.246Z,0.13
2023-01-30T15:49:59.671Z,-0.14
2023-01-30T15:52:37.423Z,0.11
2023-01-30T15:55:04.534Z,0.46
2023-01-30T15:57:36.763Z,-0.03
2023-01-30T16:00:06.596Z,-0.17
2023-01-30T16:02:36.279Z,-0.04
2023-01-30T16:05:25.251Z,-0.45
2023-01-30T16:07:54.453Z,-0.13
2023-01-30T16:10:24.122Z,-0.31
2023-01-30T16:12:54.722Z,-0.09
2023-01-30T16:15:48.880Z,0.00
2023-01-30T16:18:21.534Z,0.81
2023-01-30T16:21:01.601Z,0.88
2023-01-30T16:23:47.884Z,0.18
2023-01-30T16:26:18.114Z,0.03
2023-01-30T16:28:45.296Z,-0.15
2023-01-30T16:31:12.348Z,0.00
2023-01-30T16:33:39.112Z,0.25
2023-01-30T16:36:27.187Z,0.26
2023-01-30T16:38:55.044Z,0.67
2023-01-30T16:41:39.582Z,0.79
2023-01-30T16:44:23.830Z,0.04
2023-01-30T16:46:58.373Z,-0.22
2023-01-30T16:49:29.540Z,0.05
2023-01-30T16:52:21.248Z,-0.08
2023-01-30T16:54:57.713Z,-0.33
2023-01-30T16:57:24.313Z,0.16
2023-01-30T16:59:51.062Z,0.20
2023-01-30T17:02:39.736Z,0.37
2023-01-30T17:05:30.849Z,0.17
2023-01-30T17:08:00.628Z,-0.23
2023-01-30T17:10:42.138Z,0.24
2023-01-30T17:13:36.888Z,-0.14
2023-01-30T17:16:22.503Z,-0.34
2023-01-30T17:18:54.083Z,-0.22
2023-01-30T17:21:23.937Z,-0.24
2023-01-30T17:24:00.950Z,0.03
2023-01-30T17:26:28.400Z,-0.46
2023-01-30T17:28:55.114Z,-0.08
2023-01-30T17:31:22.329Z,0.48
2023-01-30T17:33:49.012Z,0.85
2023-01-30T17:36:22.414Z,0.71
2023-01-30T17:38:50.711Z,-0.20
2023-01-30T17:41:26.652Z,0.42
2023-01-30T17:43:53.212Z,0.08
2023-01-30T17:46:23.891Z,0.33
2023-01-30T17:48:51.778Z,1.17
2023-01-30T17:51:18.532Z,1.21
2023-01-30T17:53:45.149Z,0.96
2023-01-30T17:56:38.059Z,0.48
2023-01-30T17:59:15.311Z,0.58
2023-01-30T18:01:46.796Z,0.35
2023-01-30T18:04:13.621Z,1.13
2023-01-30T18:06:42.482Z,1.06
2023-01-30T18:09:17.960Z,1.03
2023-01-30T18:11:45.171Z,1.40
2023-01-30T18:14:11.792Z,-0.37
2023-01-30T18:16:38.620Z,0.76
2023-01-30T18:19:08.716Z,1.53
2023-01-30T18:21:40.757Z,1.49
2023-01-30T18:24:07.802Z,1.41
2023-01-30T18:26:34.447Z,0.84
2023-01-30T18:29:01.149Z,1.74
2023-01-30T18:31:31.963Z,1.84
2023-01-30T18:33:58.783Z,1.17
2023-01-30T18:36:25.440Z,0.88
2023-01-30T18:38:53.609Z,1.12
2023-01-30T18:41:24.774Z,1.60
2023-01-30T18:43:59.412Z,1.31
2023-01-30T18:46:26.916Z,1.39
2023-01-30T18:48:54.879Z,1.79
2023-01-30T18:51:30.232Z,2.14
2023-01-30T18:53:57.942Z,2.21
2023-01-30T18:56:26.646Z,1.11
2023-01-30T18:58:57.539Z,-0.18
2023-01-30T19:01:26.788Z,0.53
2023-01-30T19:03:58.160Z,1.32
2023-01-30T19:06:25.361Z,1.46
2023-01-30T19:08:52.597Z,1.74
2023-01-30T19:11:40.294Z,1.54
2023-01-30T19:14:08.095Z,1.24
2023-01-30T19:16:36.992Z,1.83
2023-01-30T19:19:04.057Z,1.90
2023-01-30T19:21:31.220Z,2.16
2023-01-30T19:23:58.040Z,1.11
2023-01-30T19:26:25.252Z,1.07
2023-01-30T19:28:52.321Z,1.90
2023-01-30T19:31:21.591Z,1.78
2023-01-30T19:33:58.367Z,2.12
2023-01-30T19:36:27.638Z,1.88
2023-01-30T19:38:54.895Z,1.44
2023-01-30T19:41:27.364Z,2.00
2023-01-30T19:43:55.475Z,1.63
2023-01-30T19:46:23.258Z,1.49
2023-01-30T19:48:50.433Z,1.61
2023-01-30T19:51:20.525Z,1.96
2023-01-30T19:53:54.799Z,1.99
2023-01-30T19:56:22.561Z,1.98
2023-01-30T19:58:53.078Z,1.91
2023-01-30T20:01:21.887Z,1.61
2023-01-30T20:03:49.525Z,1.78
2023-01-30T20:06:21.885Z,1.90
2023-01-30T20:08:54.041Z,2.35
2023-01-30T20:11:23.516Z,2.51
2023-01-30T20:13:51.407Z,2.68
2023-01-30T20:16:20.848Z,2.56
2023-01-30T20:18:49.080Z,2.38
2023-01-30T20:21:18.823Z,2.63
2023-01-30T20:23:46.407Z,2.74
2023-01-30T20:26:15.517Z,2.49
2023-01-30T20:28:42.497Z,2.48
2023-01-30T20:31:14.839Z,2.41
2023-01-30T20:33:42.057Z,1.80
2023-01-30T20:36:12.494Z,2.02
2023-01-30T20:38:41.955Z,1.90
2023-01-30T20:41:15.033Z,2.51
2023-01-30T20:43:46.743Z,2.63
2023-01-30T20:46:17.825Z,2.33
2023-01-30T20:48:45.377Z,2.95
2023-01-30T20:51:21.075Z,2.80
2023-01-30T20:53:50.682Z,2.55
2023-01-30T20:56:18.167Z,2.17
2023-01-30T20:58:44.774Z,2.55
2023-01-30T21:01:20.094Z,2.74
2023-01-30T21:03:49.501Z,2.56
2023-01-30T21:06:41.455Z,2.56
2023-01-30T21:09:11.260Z,2.56
2023-01-30T21:11:39.474Z,2.55
2023-01-30T21:14:06.391Z,2.50
2023-01-30T21:16:34.859Z,2.58
2023-01-30T21:19:05.363Z,2.54
2023-01-30T21:21:36.909Z,2.49
2023-01-30T21:24:07.531Z,2.77
2023-01-30T21:26:36.893Z,2.60
2023-01-30T21:29:06.287Z,1.98
2023-01-30T21:31:34.803Z,1.98
2023-01-30T21:34:03.586Z,1.60
2023-01-30T21:36:30.870Z,1.85
2023-01-30T21:39:16.004Z,1.76
2023-01-30T21:42:04.954Z,2.31
2023-01-30T21:44:37.673Z,2.57
2023-01-30T21:47:06.288Z,2.59
2023-01-30T21:49:33.753Z,2.49
2023-01-30T21:52:00.502Z,2.70
2023-01-30T21:54:27.323Z,2.88
2023-01-30T21:56:54.094Z,2.64
2023-01-30T21:59:20.672Z,2.81
2023-01-30T22:01:47.380Z,2.99
2023-01-30T22:04:15.250Z,3.32
2023-01-30T22:06:42.907Z,2.81
2023-01-30T22:09:13.708Z,2.91
2023-01-30T22:11:40.457Z,2.40
2023-01-30T22:14:07.156Z,2.96
2023-01-30T22:16:33.987Z,2.89
2023-01-30T22:19:03.681Z,2.70
2023-01-30T22:21:34.488Z,2.48
2023-01-30T22:24:02.312Z,2.60
2023-01-30T22:26:29.238Z,2.98
2023-01-30T22:28:58.326Z,3.10
2023-01-30T22:31:27.001Z,2.30
2023-01-30T22:33:55.891Z,2.55
2023-01-30T22:36:28.462Z,2.72
2023-01-30T22:38:55.907Z,2.58
2023-01-30T22:41:24.359Z,2.23
2023-01-30T22:43:56.010Z,2.84
2023-01-30T22:46:32.987Z,3.40
2023-01-30T22:49:01.705Z,3.58
2023-01-30T22:51:30.974Z,3.28
2023-01-30T22:54:02.378Z,3.37
2023-01-30T22:56:39.599Z,3.19
2023-01-30T22:59:07.000Z,3.11
2023-01-30T23:01:37.099Z,3.58
2023-01-30T23:04:07.151Z,3.55
2023-01-30T23:06:34.357Z,2.99
2023-01-30T23:09:01.428Z,2.89
2023-01-30T23:11:31.081Z,3.16
2023-01-30T23:14:05.504Z,3.79
2023-01-30T23:16:34.348Z,3.49
2023-01-30T23:19:03.611Z,3.99
2023-01-30T23:21:37.923Z,3.62
2023-01-30T23:24:06.688Z,3.52
2023-01-30T23:26:35.664Z,3.51
2023-01-30T23:29:04.275Z,3.52
2023-01-30T23:31:30.917Z,3.62
2023-01-30T23:34:00.869Z,3.72
2023-01-30T23:36:28.680Z,3.58
2023-01-30T23:38:57.798Z,4.11
2023-01-30T23:41:28.958Z,4.37
2023-01-30T23:43:57.050Z,4.30
2023-01-30T23:46:33.272Z,4.55
2023-01-30T23:49:05.093Z,4.94
2023-01-30T23:51:33.583Z,4.44
2023-01-30T23:54:00.599Z,4.22
2023-01-30T23:56:30.343Z,3.61
2023-01-30T23:58:57.301Z,4.14
